• Join FlightAware (Why Join?)
  • Login
  • US Flag 
 
08:32AM EST


 

Airport Tracker/Info


-or-


 

Live Flight TrackerFlight Track Log ✈ MKU303 ✈ 03-May-2013 ✈ PHNY / LNY - PHNL

Flight Track Log - Related Links

Times and Time Zones

All times are in EDT time to prevent confusion due to time zone crossing. See the MKU303 flight status page for this flight to view local times or setup timezone preferences in your user account.

Time Position Orientation Groundspeed Altitude Reporting Facility
EDT Latitude Longitude Course Direction KTS MPH feet Rate Location/Type
04:38PM 20.7500 -156.9667 290° West 160 184 3,000  Level Honolulu Center
04:39PM 20.7667 -157.0167 290° West 180 207 4,900 1,560 Climbing Honolulu Center
04:40PM 20.7833 -157.0833 285° West 210 242 6,200 1,500 Climbing Honolulu Center
04:41PM 20.8000 -157.1333 290° West 210 242 8,000 840 Climbing Honolulu Center
04:42PM 20.8333 -157.2000 298° West 250 288 8,000  Level Honolulu Center
04:43PM 20.8500 -157.2667 285° West 260 299 8,000  Level Honolulu Center
04:44PM 20.8667 -157.3500 282° West 270 311 8,000  Level Honolulu Center
04:45PM 20.9000 -157.4333 293° West 270 311 8,000 -300 Level Honolulu Center
04:46PM 20.9333 -157.5000 298° West 260 299 7,400 -780 Descending Honolulu Center
04:47PM 20.9500 -157.5667 285° West 250 288 6,500 -1,020 Descending Honolulu Center
04:48PM 20.9833 -157.6333 298° West 250 288 5,400 -1,080 Descending Honolulu Center
04:49PM 21.0167 -157.7000 298° West 240 276 4,400 -1,020 Descending Honolulu Center
04:50PM 21.0333 -157.7667 285° West 250 288 3,400 -1,020 Descending Honolulu Center
04:51PM 21.0667 -157.8333 298° West 240 276 2,400 -720 Descending Honolulu Center
04:52PM 21.1000 -157.8833 306° West 220 253 2,000 -240 Descending Honolulu Center
04:53PM 21.1500 -157.9167 328° Northwest 200 230 2,000  Level Honolulu Center
04:54PM 21.2000 -157.9333 343° North 180 207 2,000  Level Honolulu Center
04:55PM 21.2500 -157.9500 343° North 180 207 2,000 -540 Level Honolulu Center
04:56PM 21.2833 -157.9667 335° Northwest 150 173 1,000 -840 Descending Honolulu Center
04:57PM 21.3167 -157.9500 25° Northeast 110 127 400 -600 Descending Honolulu Center